Terminal Aerodrome Forecast
Issued by NWS Detroit/Pontiac, MI

Home | Current Version | Previous Version | Text Only | Print | Product List | Glossary On
Versions: 1 2 3 4 5 6 7 8 9 10 11 12 13 14 15 16 17 18 19
000
FTUS43 KDTX 252324
TAFFNT
TAF
KFNT 252324Z 2600/2624 34008KT P6SM OVC008
      TEMPO 2600/2603 BKN012 OVC022
     FM260300 31008KT P6SM OVC008
     FM261200 30006KT P6SM OVC022
     FM262000 24006KT P6SM OVC035=

USA.gov is the U.S. government's official web portal to all federal, state and local government web resources and services.